createdAt,value
2019-05-17T00:04:01.229Z,90.80
2019-05-17T00:08:58.069Z,90.60
2019-05-17T00:13:53.595Z,90.50
2019-05-17T00:18:56.849Z,90.60
2019-05-17T00:23:50.451Z,90.70
2019-05-17T00:28:49.940Z,90.80
2019-05-17T00:33:43.689Z,90.30
2019-05-17T00:38:47.566Z,90.40
2019-05-17T00:43:32.468Z,90.30
2019-05-17T00:48:26.469Z,90.00
2019-05-17T00:53:20.465Z,90.00
2019-05-17T00:58:13.943Z,90.80
2019-05-17T01:03:07.708Z,90.90
2019-05-17T01:08:01.556Z,90.50
2019-05-17T01:12:57.398Z,90.90
2019-05-17T01:17:56.342Z,90.80
2019-05-17T01:22:51.100Z,90.60
2019-05-17T01:27:47.690Z,91.20
2019-05-17T01:32:41.541Z,90.70
2019-05-17T01:37:36.938Z,90.60
2019-05-17T01:42:31.116Z,90.90
2019-05-17T01:47:27.106Z,90.40
2019-05-17T01:52:20.919Z,90.50
2019-05-17T01:57:16.669Z,90.50
2019-05-17T02:02:11.523Z,90.40
2019-05-17T02:07:06.852Z,90.90
2019-05-17T02:12:00.576Z,91.30
2019-05-17T02:16:59.729Z,91.70
2019-05-17T02:21:53.489Z,91.70
2019-05-17T02:26:47.044Z,91.90
2019-05-17T02:31:43.933Z,91.70
2019-05-17T02:36:46.299Z,91.70
2019-05-17T02:41:54.070Z,91.50
2019-05-17T02:46:47.633Z,91.50
2019-05-17T02:51:43.138Z,92.30
2019-05-17T02:56:36.796Z,92.00
2019-05-17T03:01:36.147Z,92.40
2019-05-17T03:06:32.585Z,92.80
2019-05-17T03:11:26.813Z,92.00
2019-05-17T03:16:23.387Z,92.20
2019-05-17T03:21:15.627Z,92.80
2019-05-17T03:26:12.735Z,92.90
2019-05-17T03:31:08.558Z,92.10
2019-05-17T03:36:05.833Z,92.90
2019-05-17T03:41:12.314Z,92.30
2019-05-17T03:45:53.333Z,92.30
2019-05-17T03:50:46.478Z,92.40
2019-05-17T03:55:42.813Z,92.80
2019-05-17T04:00:35.757Z,92.90
2019-05-17T04:05:29.393Z,92.80
2019-05-17T04:10:23.026Z,92.60
2019-05-17T04:15:16.742Z,93.00
2019-05-17T04:20:13.570Z,93.00
2019-05-17T04:25:06.010Z,93.20
2019-05-17T04:30:03.307Z,93.20
2019-05-17T04:34:55.909Z,93.20
2019-05-17T04:39:52.467Z,93.40
2019-05-17T04:44:45.718Z,93.10
2019-05-17T04:49:39.264Z,93.20
2019-05-17T04:54:33.520Z,93.10
2019-05-17T04:59:27.179Z,93.60
2019-05-17T05:04:22.668Z,93.30
2019-05-17T05:09:16.040Z,93.50
2019-05-17T05:14:12.545Z,93.70
2019-05-17T05:19:04.867Z,93.00
2019-05-17T05:23:58.432Z,93.00
2019-05-17T05:28:52.900Z,93.10
2019-05-17T05:33:46.872Z,92.90
2019-05-17T05:38:42.260Z,93.00
2019-05-17T05:43:35.589Z,93.20
2019-05-17T05:48:29.116Z,93.40
2019-05-17T05:53:22.600Z,93.10
2019-05-17T05:58:16.148Z,93.00
2019-05-17T06:03:11.943Z,92.80
2019-05-17T06:08:05.084Z,93.10
2019-05-17T06:12:58.563Z,92.80
2019-05-17T06:17:52.116Z,92.80
2019-05-17T06:22:45.601Z,93.40
2019-05-17T06:27:41.361Z,93.00
2019-05-17T06:32:34.564Z,92.70
2019-05-17T06:37:28.220Z,92.80
2019-05-17T06:42:36.966Z,93.20
2019-05-17T06:47:18.128Z,93.00
2019-05-17T06:52:11.723Z,92.20
2019-05-17T06:57:06.081Z,92.50
2019-05-17T07:01:59.908Z,92.20
2019-05-17T07:07:11.652Z,92.10
2019-05-17T07:12:05.239Z,92.30
2019-05-17T07:16:59.615Z,92.80
2019-05-17T07:21:53.234Z,92.60
2019-05-17T07:26:46.771Z,93.00
2019-05-17T07:31:40.600Z,92.20
2019-05-17T07:36:34.365Z,92.50
2019-05-17T07:41:29.755Z,92.20
2019-05-17T07:46:23.037Z,92.20
2019-05-17T07:51:16.516Z,92.70
2019-05-17T07:56:10.383Z,93.00
2019-05-17T08:01:04.046Z,93.00
2019-05-17T08:05:59.805Z,92.60
2019-05-17T08:10:53.059Z,92.50
2019-05-17T08:15:46.620Z,91.80
2019-05-17T08:20:40.373Z,91.40
2019-05-17T08:25:33.916Z,91.50
2019-05-17T08:30:30.292Z,91.70
2019-05-17T08:35:23.628Z,90.90
2019-05-17T08:40:19.793Z,90.30
2019-05-17T08:45:13.762Z,90.50
2019-05-17T08:50:11.310Z,90.50
2019-05-17T08:55:06.624Z,90.80
2019-05-17T09:00:00.736Z,91.10
2019-05-17T09:04:54.798Z,91.30
2019-05-17T09:09:50.118Z,91.80
2019-05-17T09:14:45.457Z,90.20
2019-05-17T09:19:39.547Z,90.80
2019-05-17T09:24:33.176Z,88.30
2019-05-17T09:29:26.991Z,85.80
2019-05-17T09:34:20.478Z,85.80
2019-05-17T09:39:15.178Z,84.80
2019-05-17T09:44:15.609Z,85.30
2019-05-17T09:49:04.341Z,82.90
2019-05-17T09:54:00.035Z,81.00
2019-05-17T09:58:53.876Z,75.90
2019-05-17T10:03:47.361Z,71.90
2019-05-17T10:08:40.906Z,71.90
2019-05-17T10:13:34.389Z,69.20
2019-05-17T10:18:29.557Z,66.50
2019-05-17T10:23:23.460Z,66.70
2019-05-17T10:28:17.861Z,59.80
2019-05-17T10:33:11.987Z,62.70
2019-05-17T10:38:06.782Z,64.60
2019-05-17T10:43:01.325Z,62.30
2019-05-17T10:47:54.871Z,62.70
2019-05-17T10:52:48.616Z,61.70
2019-05-17T10:57:42.170Z,62.80
2019-05-17T11:02:36.603Z,60.80
2019-05-17T11:07:30.348Z,62.00
2019-05-17T11:12:26.860Z,63.90
2019-05-17T11:17:20.432Z,63.40
2019-05-17T11:22:13.947Z,61.30
2019-05-17T11:27:07.748Z,59.30
2019-05-17T11:32:01.237Z,59.00
2019-05-17T11:36:54.709Z,59.50
2019-05-17T11:41:48.260Z,62.50
2019-05-17T11:46:41.930Z,63.20
2019-05-17T11:51:35.736Z,61.40
2019-05-17T11:56:29.590Z,62.40
2019-05-17T12:01:23.137Z,61.10
2019-05-17T12:06:16.906Z,60.40
2019-05-17T12:11:10.548Z,62.10
2019-05-17T12:16:04.100Z,60.40
2019-05-17T12:20:57.624Z,60.00
2019-05-17T12:25:51.222Z,61.10
2019-05-17T12:30:44.752Z,61.50
2019-05-17T12:35:38.504Z,61.70
2019-05-17T12:40:31.985Z,62.20
2019-05-17T12:45:25.534Z,62.10
2019-05-17T12:50:19.836Z,63.40
2019-05-17T12:55:14.060Z,61.80
2019-05-17T13:00:08.277Z,62.10
2019-05-17T13:05:02.019Z,60.10
2019-05-17T13:09:55.556Z,57.70
2019-05-17T13:14:49.300Z,57.60
2019-05-17T13:19:42.767Z,59.60
2019-05-17T13:24:36.264Z,58.70
2019-05-17T13:29:29.804Z,58.50
2019-05-17T13:34:23.541Z,59.80
2019-05-17T13:39:17.031Z,59.90
2019-05-17T13:44:10.579Z,61.60
2019-05-17T13:49:05.025Z,60.70
2019-05-17T13:53:58.572Z,59.90
2019-05-17T13:58:52.064Z,60.80
2019-05-17T14:03:46.571Z,60.70
2019-05-17T14:08:40.130Z,59.70
2019-05-17T14:13:33.678Z,59.30
2019-05-17T14:18:27.501Z,57.90
2019-05-17T14:23:21.048Z,59.00
2019-05-17T14:28:14.533Z,59.70
2019-05-17T14:33:08.088Z,59.10
2019-05-17T14:38:01.640Z,59.20
2019-05-17T14:42:55.222Z,59.70
2019-05-17T14:47:48.683Z,61.40
2019-05-17T14:52:42.176Z,60.40
2019-05-17T14:57:35.817Z,59.40
2019-05-17T15:02:29.376Z,58.60
2019-05-17T15:07:22.855Z,58.90
2019-05-17T15:12:27.775Z,59.50
2019-05-17T15:17:11.813Z,59.60
2019-05-17T15:22:05.723Z,58.60
2019-05-17T15:27:05.294Z,59.40
2019-05-17T15:31:55.706Z,59.30
2019-05-17T15:36:49.326Z,60.80
2019-05-17T15:41:42.956Z,59.80
2019-05-17T15:46:36.487Z,62.20
2019-05-17T15:51:30.080Z,60.90
2019-05-17T15:56:23.560Z,60.30
2019-05-17T16:01:17.318Z,60.00
2019-05-17T16:06:11.220Z,59.80
2019-05-17T16:11:04.824Z,60.20
2019-05-17T16:16:00.416Z,61.70
2019-05-17T16:20:53.945Z,60.20
2019-05-17T16:25:47.433Z,60.70
2019-05-17T16:30:41.221Z,61.20
2019-05-17T16:35:35.716Z,61.50
2019-05-17T16:40:29.263Z,62.20
2019-05-17T16:45:22.749Z,62.20
2019-05-17T16:50:16.553Z,63.60
2019-05-17T16:55:10.445Z,63.10
2019-05-17T17:00:07.936Z,63.20
2019-05-17T17:05:01.765Z,63.00
2019-05-17T17:09:55.344Z,63.50
2019-05-17T17:14:49.703Z,64.50
2019-05-17T17:19:43.179Z,64.10
2019-05-17T17:24:36.735Z,64.60
2019-05-17T17:29:30.221Z,65.20
2019-05-17T17:34:23.703Z,63.70
2019-05-17T17:39:17.180Z,63.50
2019-05-17T17:44:11.694Z,63.90
2019-05-17T17:49:05.680Z,64.00
2019-05-17T17:53:59.592Z,64.10
2019-05-17T17:58:53.998Z,64.30
2019-05-17T18:03:47.556Z,64.90
2019-05-17T18:08:42.004Z,65.10
2019-05-17T18:13:41.326Z,64.60
2019-05-17T18:18:37.533Z,64.80
2019-05-17T18:23:32.074Z,65.30
2019-05-17T18:28:25.562Z,65.00
2019-05-17T18:33:19.118Z,65.80
2019-05-17T18:38:13.792Z,66.50
2019-05-17T18:43:07.438Z,65.80
2019-05-17T18:48:01.805Z,66.20
2019-05-17T18:52:56.417Z,66.00
2019-05-17T18:57:49.959Z,66.40
2019-05-17T19:02:49.555Z,66.50
2019-05-17T19:07:46.830Z,66.60
2019-05-17T19:12:40.403Z,67.40
2019-05-17T19:17:33.955Z,67.00
2019-05-17T19:22:27.444Z,67.70
2019-05-17T19:27:20.920Z,68.20
2019-05-17T19:32:16.357Z,68.00
2019-05-17T19:37:09.844Z,68.60
2019-05-17T19:42:03.328Z,69.10
2019-05-17T19:46:56.984Z,69.70
2019-05-17T19:51:50.452Z,70.40
2019-05-17T19:56:44.007Z,70.90
2019-05-17T20:01:37.508Z,71.20
2019-05-17T20:06:31.069Z,70.80
2019-05-17T20:11:34.124Z,71.30
2019-05-17T20:16:23.604Z,71.40
2019-05-17T20:21:17.164Z,71.80
2019-05-17T20:26:10.781Z,71.80
2019-05-17T20:31:05.584Z,72.50
2019-05-17T20:36:00.113Z,72.60
2019-05-17T20:40:53.580Z,72.70
2019-05-17T20:45:49.078Z,72.80
2019-05-17T20:50:42.597Z,72.80
2019-05-17T20:55:36.091Z,73.20
2019-05-17T21:00:29.744Z,73.00
2019-05-17T21:05:23.294Z,72.70
2019-05-17T21:10:16.908Z,75.20
2019-05-17T21:15:11.176Z,74.00
2019-05-17T21:20:07.355Z,75.70
2019-05-17T21:25:00.836Z,74.60
2019-05-17T21:29:55.220Z,74.50
2019-05-17T21:34:52.017Z,74.70
2019-05-17T21:39:45.579Z,75.00
2019-05-17T21:44:39.133Z,74.60
2019-05-17T21:49:32.684Z,76.00
2019-05-17T21:54:26.190Z,76.00
2019-05-17T21:59:19.736Z,78.10
2019-05-17T22:04:13.220Z,76.60
2019-05-17T22:09:08.816Z,77.00
2019-05-17T22:14:02.602Z,77.10
2019-05-17T22:18:57.144Z,77.10
2019-05-17T22:23:50.636Z,77.80
2019-05-17T22:28:44.112Z,77.90
2019-05-17T22:33:37.590Z,77.30
2019-05-17T22:38:31.205Z,77.50
2019-05-17T22:43:24.752Z,77.00
2019-05-17T22:48:18.275Z,77.00
2019-05-17T22:53:11.807Z,76.70
2019-05-17T22:58:05.321Z,77.10
2019-05-17T23:02:59.073Z,77.40
2019-05-17T23:07:56.127Z,76.80
2019-05-17T23:12:53.632Z,77.20
2019-05-17T23:17:47.373Z,77.00
2019-05-17T23:22:41.046Z,77.30
2019-05-17T23:27:34.860Z,77.70
2019-05-17T23:32:28.599Z,78.40
2019-05-17T23:37:22.183Z,79.10
2019-05-17T23:42:15.740Z,78.70
2019-05-17T23:47:10.143Z,79.00
2019-05-17T23:52:03.776Z,79.10
2019-05-17T23:56:57.610Z,79.20
